sensor_id;sensor_type;location;lat;lon;timestamp;pressure;altitude;pressure_sealevel;temperature;humidity
73429;BME280;61643;49.564;17.412;2023-03-31T00:00:29;97657.47;;;5.10;100.00
73429;BME280;61643;49.564;17.412;2023-03-31T00:02:56;97647.41;;;5.01;100.00
73429;BME280;61643;49.564;17.412;2023-03-31T00:05:26;97641.38;;;5.05;100.00
73429;BME280;61643;49.564;17.412;2023-03-31T00:07:56;97640.34;;;5.06;100.00
73429;BME280;61643;49.564;17.412;2023-03-31T00:10:34;97633.75;;;4.97;100.00
73429;BME280;61643;49.564;17.412;2023-03-31T00:13:00;97640.50;;;4.88;100.00
73429;BME280;61643;49.564;17.412;2023-03-31T00:15:27;97650.34;;;4.76;100.00
73429;BME280;61643;49.564;17.412;2023-03-31T00:17:53;97641.06;;;4.67;100.00
73429;BME280;61643;49.564;17.412;2023-03-31T00:20:19;97640.16;;;4.61;100.00
73429;BME280;61643;49.564;17.412;2023-03-31T00:22:45;97651.97;;;4.77;100.00
73429;BME280;61643;49.564;17.412;2023-03-31T00:25:13;97649.53;;;4.87;100.00
73429;BME280;61643;49.564;17.412;2023-03-31T00:27:43;97655.81;;;4.69;100.00
73429;BME280;61643;49.564;17.412;2023-03-31T00:30:11;97655.69;;;4.76;100.00
73429;BME280;61643;49.564;17.412;2023-03-31T00:32:37;97652.31;;;4.69;100.00
73429;BME280;61643;49.564;17.412;2023-03-31T00:35:03;97647.47;;;4.66;100.00
73429;BME280;61643;49.564;17.412;2023-03-31T00:37:30;97645.97;;;4.70;100.00
73429;BME280;61643;49.564;17.412;2023-03-31T00:39:58;97650.59;;;4.63;100.00
73429;BME280;61643;49.564;17.412;2023-03-31T00:42:24;97651.41;;;4.52;100.00
73429;BME280;61643;49.564;17.412;2023-03-31T00:45:20;97642.09;;;4.08;100.00
73429;BME280;61643;49.564;17.412;2023-03-31T00:47:54;97638.28;;;4.15;100.00
73429;BME280;61643;49.564;17.412;2023-03-31T00:50:26;97643.50;;;4.10;100.00
73429;BME280;61643;49.564;17.412;2023-03-31T00:52:57;97647.53;;;4.01;100.00
73429;BME280;61643;49.564;17.412;2023-03-31T00:55:35;97645.66;;;4.02;100.00
73429;BME280;61643;49.564;17.412;2023-03-31T00:58:04;97637.91;;;4.00;100.00
73429;BME280;61643;49.564;17.412;2023-03-31T01:00:30;97635.59;;;3.92;100.00
73429;BME280;61643;49.564;17.412;2023-03-31T01:02:59;97629.22;;;3.93;100.00
73429;BME280;61643;49.564;17.412;2023-03-31T01:05:32;97629.22;;;3.93;100.00
73429;BME280;61643;49.564;17.412;2023-03-31T01:07:59;97623.66;;;3.83;100.00
73429;BME280;61643;49.564;17.412;2023-03-31T01:10:28;97621.56;;;3.85;100.00
73429;BME280;61643;49.564;17.412;2023-03-31T01:12:58;97623.06;;;3.81;100.00
73429;BME280;61643;49.564;17.412;2023-03-31T01:15:23;97615.53;;;3.78;100.00
73429;BME280;61643;49.564;17.412;2023-03-31T01:17:51;97623.03;;;3.69;100.00
73429;BME280;61643;49.564;17.412;2023-03-31T01:34:34;97600.13;;;3.80;100.00
73429;BME280;61643;49.564;17.412;2023-03-31T01:37:26;97608.00;;;3.75;100.00
73429;BME280;61643;49.564;17.412;2023-03-31T01:40:46;97598.72;;;3.66;100.00
73429;BME280;61643;49.564;17.412;2023-03-31T01:43:35;97601.19;;;3.79;100.00
73429;BME280;61643;49.564;17.412;2023-03-31T01:49:06;97610.81;;;3.91;100.00
73429;BME280;61643;49.564;17.412;2023-03-31T01:54:21;97611.94;;;3.84;100.00
73429;BME280;61643;49.564;17.412;2023-03-31T01:57:04;97599.31;;;3.68;100.00
73429;BME280;61643;49.564;17.412;2023-03-31T01:59:39;97612.78;;;3.55;100.00
73429;BME280;61643;49.564;17.412;2023-03-31T02:02:16;97612.00;;;3.54;100.00
73429;BME280;61643;49.564;17.412;2023-03-31T02:04:49;97605.47;;;3.38;100.00
73429;BME280;61643;49.564;17.412;2023-03-31T02:07:23;97588.31;;;3.34;100.00
73429;BME280;61643;49.564;17.412;2023-03-31T02:09:57;97583.91;;;3.28;100.00
73429;BME280;61643;49.564;17.412;2023-03-31T02:12:28;97585.31;;;3.31;100.00
73429;BME280;61643;49.564;17.412;2023-03-31T02:14:57;97579.63;;;3.27;100.00
73429;BME280;61643;49.564;17.412;2023-03-31T02:17:26;97580.44;;;2.98;100.00
73429;BME280;61643;49.564;17.412;2023-03-31T02:20:03;97586.75;;;3.15;100.00
73429;BME280;61643;49.564;17.412;2023-03-31T02:22:36;97581.00;;;3.18;100.00
73429;BME280;61643;49.564;17.412;2023-03-31T02:25:05;97566.78;;;3.24;100.00
73429;BME280;61643;49.564;17.412;2023-03-31T02:27:40;97577.13;;;3.32;100.00
73429;BME280;61643;49.564;17.412;2023-03-31T02:30:09;97562.41;;;3.30;100.00
73429;BME280;61643;49.564;17.412;2023-03-31T02:32:37;97559.16;;;3.28;100.00
73429;BME280;61643;49.564;17.412;2023-03-31T02:35:07;97551.56;;;3.02;100.00
73429;BME280;61643;49.564;17.412;2023-03-31T02:37:35;97566.53;;;3.14;100.00
73429;BME280;61643;49.564;17.412;2023-03-31T02:40:05;97558.31;;;3.16;100.00
73429;BME280;61643;49.564;17.412;2023-03-31T02:42:37;97551.16;;;3.16;100.00
73429;BME280;61643;49.564;17.412;2023-03-31T02:45:04;97555.44;;;3.17;100.00
73429;BME280;61643;49.564;17.412;2023-03-31T02:47:31;97553.22;;;3.14;100.00
73429;BME280;61643;49.564;17.412;2023-03-31T02:49:59;97546.84;;;3.15;100.00
73429;BME280;61643;49.564;17.412;2023-03-31T02:52:49;97554.25;;;3.13;100.00
73429;BME280;61643;49.564;17.412;2023-03-31T02:55:32;97546.75;;;3.10;100.00
73429;BME280;61643;49.564;17.412;2023-03-31T03:14:33;97544.84;;;2.99;100.00
73429;BME280;61643;49.564;17.412;2023-03-31T03:17:05;97526.25;;;2.99;100.00
73429;BME280;61643;49.564;17.412;2023-03-31T03:19:33;97527.81;;;2.88;100.00
73429;BME280;61643;49.564;17.412;2023-03-31T03:21:59;97525.97;;;2.89;100.00
73429;BME280;61643;49.564;17.412;2023-03-31T03:24:25;97520.63;;;3.07;100.00
73429;BME280;61643;49.564;17.412;2023-03-31T03:26:54;97527.06;;;3.00;100.00
73429;BME280;61643;49.564;17.412;2023-03-31T03:29:20;97526.91;;;2.94;100.00
73429;BME280;61643;49.564;17.412;2023-03-31T03:31:46;97537.94;;;3.10;100.00
73429;BME280;61643;49.564;17.412;2023-03-31T03:34:12;97526.97;;;3.06;100.00
73429;BME280;61643;49.564;17.412;2023-03-31T03:36:38;97531.59;;;3.11;100.00
73429;BME280;61643;49.564;17.412;2023-03-31T03:39:06;97524.16;;;3.01;100.00
73429;BME280;61643;49.564;17.412;2023-03-31T03:41:33;97539.59;;;3.11;100.00
73429;BME280;61643;49.564;17.412;2023-03-31T03:43:59;97529.31;;;3.14;100.00
73429;BME280;61643;49.564;17.412;2023-03-31T03:46:25;97528.84;;;3.17;100.00
73429;BME280;61643;49.564;17.412;2023-03-31T03:48:52;97520.09;;;3.28;100.00
73429;BME280;61643;49.564;17.412;2023-03-31T03:51:18;97524.41;;;3.41;100.00
73429;BME280;61643;49.564;17.412;2023-03-31T03:53:44;97515.78;;;3.69;100.00
73429;BME280;61643;49.564;17.412;2023-03-31T03:56:10;97524.47;;;3.76;100.00
73429;BME280;61643;49.564;17.412;2023-03-31T03:58:36;97515.88;;;3.74;100.00
73429;BME280;61643;49.564;17.412;2023-03-31T04:01:02;97513.03;;;3.87;100.00
73429;BME280;61643;49.564;17.412;2023-03-31T04:03:29;97510.69;;;3.79;100.00
73429;BME280;61643;49.564;17.412;2023-03-31T04:05:56;97501.19;;;3.60;100.00
73429;BME280;61643;49.564;17.412;2023-03-31T04:08:22;97507.09;;;3.50;100.00
73429;BME280;61643;49.564;17.412;2023-03-31T04:10:49;97508.09;;;3.49;100.00
73429;BME280;61643;49.564;17.412;2023-03-31T04:13:15;97494.44;;;3.34;100.00
73429;BME280;61643;49.564;17.412;2023-03-31T04:15:42;97498.41;;;3.43;100.00
73429;BME280;61643;49.564;17.412;2023-03-31T04:18:09;97502.28;;;3.40;100.00
73429;BME280;61643;49.564;17.412;2023-03-31T04:20:38;97491.63;;;3.17;100.00
73429;BME280;61643;49.564;17.412;2023-03-31T04:23:04;97500.63;;;3.16;100.00
73429;BME280;61643;49.564;17.412;2023-03-31T04:25:34;97492.88;;;3.15;100.00
73429;BME280;61643;49.564;17.412;2023-03-31T04:28:03;97493.88;;;3.43;100.00
73429;BME280;61643;49.564;17.412;2023-03-31T04:30:31;97499.19;;;3.55;100.00
73429;BME280;61643;49.564;17.412;2023-03-31T04:33:01;97501.53;;;3.63;100.00
73429;BME280;61643;49.564;17.412;2023-03-31T04:35:29;97490.66;;;3.76;100.00
73429;BME280;61643;49.564;17.412;2023-03-31T04:38:07;97495.88;;;3.83;100.00
73429;BME280;61643;49.564;17.412;2023-03-31T04:40:33;97481.16;;;3.80;100.00
73429;BME280;61643;49.564;17.412;2023-03-31T04:43:00;97480.84;;;4.00;100.00
73429;BME280;61643;49.564;17.412;2023-03-31T04:45:26;97486.84;;;4.19;100.00
73429;BME280;61643;49.564;17.412;2023-03-31T04:47:52;97472.44;;;4.31;100.00
73429;BME280;61643;49.564;17.412;2023-03-31T04:50:18;97483.31;;;4.41;100.00
73429;BME280;61643;49.564;17.412;2023-03-31T04:52:44;97483.63;;;4.45;100.00
73429;BME280;61643;49.564;17.412;2023-03-31T04:55:10;97473.25;;;4.43;100.00
73429;BME280;61643;49.564;17.412;2023-03-31T04:57:36;97483.06;;;4.55;100.00
73429;BME280;61643;49.564;17.412;2023-03-31T05:00:03;97488.13;;;4.56;100.00
73429;BME280;61643;49.564;17.412;2023-03-31T05:02:32;97489.06;;;4.62;100.00
73429;BME280;61643;49.564;17.412;2023-03-31T05:04:58;97486.47;;;4.67;100.00
73429;BME280;61643;49.564;17.412;2023-03-31T05:07:24;97481.16;;;4.67;100.00
73429;BME280;61643;49.564;17.412;2023-03-31T05:09:51;97483.44;;;4.75;100.00
73429;BME280;61643;49.564;17.412;2023-03-31T05:12:17;97485.63;;;4.78;100.00
73429;BME280;61643;49.564;17.412;2023-03-31T05:14:42;97477.56;;;4.73;100.00
73429;BME280;61643;49.564;17.412;2023-03-31T05:17:08;97473.94;;;4.79;100.00
73429;BME280;61643;49.564;17.412;2023-03-31T05:19:35;97475.22;;;4.76;100.00
73429;BME280;61643;49.564;17.412;2023-03-31T05:22:01;97471.75;;;4.76;100.00
73429;BME280;61643;49.564;17.412;2023-03-31T05:24:26;97478.25;;;4.68;100.00
73429;BME280;61643;49.564;17.412;2023-03-31T05:26:55;97475.13;;;4.71;100.00
73429;BME280;61643;49.564;17.412;2023-03-31T05:29:22;97480.44;;;4.71;100.00
73429;BME280;61643;49.564;17.412;2023-03-31T05:31:50;97464.94;;;4.68;100.00
73429;BME280;61643;49.564;17.412;2023-03-31T05:34:18;97469.56;;;4.73;100.00
73429;BME280;61643;49.564;17.412;2023-03-31T05:36:44;97466.75;;;4.79;100.00
73429;BME280;61643;49.564;17.412;2023-03-31T05:39:12;97478.78;;;4.82;100.00
73429;BME280;61643;49.564;17.412;2023-03-31T05:41:39;97475.06;;;4.83;100.00
73429;BME280;61643;49.564;17.412;2023-03-31T05:44:05;97471.06;;;4.97;100.00
73429;BME280;61643;49.564;17.412;2023-03-31T05:46:31;97461.56;;;5.01;100.00
73429;BME280;61643;49.564;17.412;2023-03-31T05:48:57;97454.38;;;5.18;100.00
73429;BME280;61643;49.564;17.412;2023-03-31T05:51:24;97457.22;;;5.28;100.00
73429;BME280;61643;49.564;17.412;2023-03-31T05:53:50;97461.75;;;5.44;100.00
73429;BME280;61643;49.564;17.412;2023-03-31T05:56:16;97459.34;;;5.60;100.00
73429;BME280;61643;49.564;17.412;2023-03-31T05:58:42;97453.03;;;5.66;100.00
73429;BME280;61643;49.564;17.412;2023-03-31T06:01:10;97458.19;;;5.72;100.00
73429;BME280;61643;49.564;17.412;2023-03-31T06:03:39;97454.97;;;5.70;100.00
73429;BME280;61643;49.564;17.412;2023-03-31T06:06:09;97452.66;;;5.79;100.00
73429;BME280;61643;49.564;17.412;2023-03-31T06:08:37;97446.72;;;5.88;100.00
73429;BME280;61643;49.564;17.412;2023-03-31T06:11:08;97452.53;;;6.02;100.00
73429;BME280;61643;49.564;17.412;2023-03-31T06:13:35;97438.19;;;6.30;100.00
73429;BME280;61643;49.564;17.412;2023-03-31T06:16:02;97428.13;;;6.37;100.00
73429;BME280;61643;49.564;17.412;2023-03-31T06:18:30;97419.16;;;6.26;100.00
73429;BME280;61643;49.564;17.412;2023-03-31T06:20:57;97422.09;;;6.25;100.00
73429;BME280;61643;49.564;17.412;2023-03-31T06:23:24;97418.66;;;6.29;100.00
73429;BME280;61643;49.564;17.412;2023-03-31T06:25:51;97430.16;;;6.30;100.00
73429;BME280;61643;49.564;17.412;2023-03-31T06:28:18;97426.63;;;6.24;100.00
73429;BME280;61643;49.564;17.412;2023-03-31T06:30:45;97430.13;;;6.25;100.00
73429;BME280;61643;49.564;17.412;2023-03-31T06:33:11;97423.97;;;6.24;100.00
73429;BME280;61643;49.564;17.412;2023-03-31T06:35:38;97422.09;;;6.25;100.00
73429;BME280;61643;49.564;17.412;2023-03-31T06:38:05;97417.63;;;6.30;100.00
73429;BME280;61643;49.564;17.412;2023-03-31T06:40:31;97413.16;;;6.36;100.00
73429;BME280;61643;49.564;17.412;2023-03-31T06:42:58;97409.47;;;6.42;100.00
73429;BME280;61643;49.564;17.412;2023-03-31T06:45:24;97400.63;;;6.36;100.00
73429;BME280;61643;49.564;17.412;2023-03-31T06:47:50;97413.47;;;6.39;100.00
73429;BME280;61643;49.564;17.412;2023-03-31T06:50:16;97419.13;;;6.43;100.00
73429;BME280;61643;49.564;17.412;2023-03-31T06:52:42;97422.41;;;6.50;100.00
73429;BME280;61643;49.564;17.412;2023-03-31T06:55:09;97430.25;;;6.57;100.00
73429;BME280;61643;49.564;17.412;2023-03-31T06:57:35;97429.69;;;6.55;100.00
73429;BME280;61643;49.564;17.412;2023-03-31T07:00:03;97424.66;;;6.58;100.00
73429;BME280;61643;49.564;17.412;2023-03-31T07:02:29;97425.25;;;6.65;100.00
73429;BME280;61643;49.564;17.412;2023-03-31T07:04:55;97418.41;;;6.74;100.00
73429;BME280;61643;49.564;17.412;2023-03-31T07:07:21;97414.47;;;6.82;100.00
73429;BME280;61643;49.564;17.412;2023-03-31T07:09:47;97409.19;;;6.87;100.00
73429;BME280;61643;49.564;17.412;2023-03-31T07:12:13;97400.19;;;6.98;100.00
73429;BME280;61643;49.564;17.412;2023-03-31T07:14:39;97393.53;;;7.01;100.00
73429;BME280;61643;49.564;17.412;2023-03-31T07:17:05;97387.72;;;7.09;100.00
73429;BME280;61643;49.564;17.412;2023-03-31T07:19:31;97389.59;;;7.13;100.00
73429;BME280;61643;49.564;17.412;2023-03-31T07:21:57;97396.34;;;7.16;100.00
73429;BME280;61643;49.564;17.412;2023-03-31T07:24:23;97400.97;;;7.25;100.00
73429;BME280;61643;49.564;17.412;2023-03-31T07:26:49;97402.59;;;7.31;100.00
73429;BME280;61643;49.564;17.412;2023-03-31T07:29:15;97399.94;;;7.31;100.00
73429;BME280;61643;49.564;17.412;2023-03-31T07:31:41;97387.66;;;7.35;100.00
73429;BME280;61643;49.564;17.412;2023-03-31T07:34:07;97378.28;;;7.38;100.00
73429;BME280;61643;49.564;17.412;2023-03-31T07:36:34;97369.25;;;7.44;100.00
73429;BME280;61643;49.564;17.412;2023-03-31T07:39:00;97371.66;;;7.46;100.00
73429;BME280;61643;49.564;17.412;2023-03-31T07:41:26;97351.91;;;7.52;100.00
73429;BME280;61643;49.564;17.412;2023-03-31T07:43:52;97347.38;;;7.57;100.00
73429;BME280;61643;49.564;17.412;2023-03-31T07:46:26;97340.47;;;7.66;100.00
73429;BME280;61643;49.564;17.412;2023-03-31T07:48:52;97330.06;;;7.75;100.00
73429;BME280;61643;49.564;17.412;2023-03-31T07:51:21;97329.59;;;7.83;100.00
73429;BME280;61643;49.564;17.412;2023-03-31T07:53:48;97325.88;;;7.94;100.00
73429;BME280;61643;49.564;17.412;2023-03-31T07:56:14;97324.88;;;8.05;100.00
73429;BME280;61643;49.564;17.412;2023-03-31T07:58:42;97327.03;;;8.18;100.00
73429;BME280;61643;49.564;17.412;2023-03-31T08:01:08;97334.09;;;8.29;100.00
73429;BME280;61643;49.564;17.412;2023-03-31T08:03:34;97340.03;;;8.42;100.00
73429;BME280;61643;49.564;17.412;2023-03-31T08:06:00;97332.53;;;8.54;100.00
73429;BME280;61643;49.564;17.412;2023-03-31T08:08:26;97334.69;;;8.62;100.00
73429;BME280;61643;49.564;17.412;2023-03-31T08:10:52;97331.22;;;8.61;100.00
73429;BME280;61643;49.564;17.412;2023-03-31T08:13:18;97335.53;;;8.67;100.00
73429;BME280;61643;49.564;17.412;2023-03-31T08:15:44;97333.09;;;8.66;100.00
73429;BME280;61643;49.564;17.412;2023-03-31T08:18:10;97333.66;;;8.83;100.00
73429;BME280;61643;49.564;17.412;2023-03-31T08:20:36;97331.53;;;8.90;100.00
73429;BME280;61643;49.564;17.412;2023-03-31T08:23:03;97323.47;;;8.90;100.00
73429;BME280;61643;49.564;17.412;2023-03-31T08:25:33;97321.88;;;8.94;100.00
73429;BME280;61643;49.564;17.412;2023-03-31T08:27:59;97321.06;;;8.99;100.00
73429;BME280;61643;49.564;17.412;2023-03-31T08:30:25;97312.75;;;9.10;100.00
73429;BME280;61643;49.564;17.412;2023-03-31T08:32:51;97308.72;;;9.18;100.00
73429;BME280;61643;49.564;17.412;2023-03-31T08:35:17;97324.81;;;9.38;100.00
73429;BME280;61643;49.564;17.412;2023-03-31T08:37:43;97305.72;;;9.55;100.00
73429;BME280;61643;49.564;17.412;2023-03-31T08:40:19;97306.22;;;9.72;100.00
73429;BME280;61643;49.564;17.412;2023-03-31T08:42:57;97298.66;;;9.79;100.00
73429;BME280;61643;49.564;17.412;2023-03-31T08:45:40;97293.50;;;9.87;100.00
73429;BME280;61643;49.564;17.412;2023-03-31T08:51:05;97274.94;;;10.01;100.00
73429;BME280;61643;49.564;17.412;2023-03-31T08:53:38;97274.91;;;10.06;100.00
73429;BME280;61643;49.564;17.412;2023-03-31T08:56:14;97272.97;;;10.22;100.00
73429;BME280;61643;49.564;17.412;2023-03-31T08:58:43;97271.34;;;10.26;100.00
73429;BME280;61643;49.564;17.412;2023-03-31T09:04:20;97270.81;;;10.24;100.00
73429;BME280;61643;49.564;17.412;2023-03-31T09:07:07;97258.16;;;10.24;100.00
73429;BME280;61643;49.564;17.412;2023-03-31T09:09:44;97256.72;;;10.42;100.00
73429;BME280;61643;49.564;17.412;2023-03-31T09:12:22;97249.91;;;10.60;100.00
73429;BME280;61643;49.564;17.412;2023-03-31T09:15:01;97248.22;;;10.64;100.00
73429;BME280;61643;49.564;17.412;2023-03-31T09:17:32;97238.59;;;10.58;100.00
73429;BME280;61643;49.564;17.412;2023-03-31T09:20:30;97245.72;;;10.77;100.00
73429;BME280;61643;49.564;17.412;2023-03-31T09:23:27;97237.78;;;10.91;100.00
73429;BME280;61643;49.564;17.412;2023-03-31T09:25:57;97242.34;;;10.96;100.00
73429;BME280;61643;49.564;17.412;2023-03-31T09:28:50;97240.97;;;10.98;100.00
73429;BME280;61643;49.564;17.412;2023-03-31T09:31:19;97228.34;;;10.94;98.40
73429;BME280;61643;49.564;17.412;2023-03-31T09:33:47;97237.97;;;11.00;99.01
73429;BME280;61643;49.564;17.412;2023-03-31T09:36:18;97225.78;;;11.07;99.30
73429;BME280;61643;49.564;17.412;2023-03-31T09:38:45;97214.72;;;11.14;99.56
73429;BME280;61643;49.564;17.412;2023-03-31T09:41:13;97207.31;;;11.24;99.29
73429;BME280;61643;49.564;17.412;2023-03-31T09:43:40;97198.59;;;11.32;99.00
73429;BME280;61643;49.564;17.412;2023-03-31T09:46:25;97198.19;;;11.44;98.09
73429;BME280;61643;49.564;17.412;2023-03-31T09:48:59;97194.03;;;11.57;97.65
73429;BME280;61643;49.564;17.412;2023-03-31T09:51:29;97197.19;;;11.64;97.66
73429;BME280;61643;49.564;17.412;2023-03-31T09:54:01;97187.44;;;11.68;98.15
73429;BME280;61643;49.564;17.412;2023-03-31T09:59:13;97182.66;;;11.83;97.08
73429;BME280;61643;49.564;17.412;2023-03-31T10:01:39;97183.63;;;11.93;98.10
73429;BME280;61643;49.564;17.412;2023-03-31T10:04:17;97172.75;;;11.98;96.73
73429;BME280;61643;49.564;17.412;2023-03-31T10:06:44;97175.97;;;12.00;94.76
73429;BME280;61643;49.564;17.412;2023-03-31T10:09:10;97166.81;;;12.01;95.18
73429;BME280;61643;49.564;17.412;2023-03-31T10:11:37;97161.09;;;12.02;94.49
73429;BME280;61643;49.564;17.412;2023-03-31T10:14:13;97151.41;;;12.01;95.64
73429;BME280;61643;49.564;17.412;2023-03-31T10:16:47;97155.13;;;12.05;95.75
73429;BME280;61643;49.564;17.412;2023-03-31T10:19:25;97151.13;;;12.03;94.81
73429;BME280;61643;49.564;17.412;2023-03-31T10:22:03;97150.31;;;12.02;94.07
73429;BME280;61643;49.564;17.412;2023-03-31T10:24:38;97140.34;;;12.03;94.36
73429;BME280;61643;49.564;17.412;2023-03-31T10:27:06;97134.44;;;12.01;94.03
73429;BME280;61643;49.564;17.412;2023-03-31T10:29:39;97134.13;;;12.02;94.75
73429;BME280;61643;49.564;17.412;2023-03-31T10:32:21;97134.13;;;12.02;94.98
73429;BME280;61643;49.564;17.412;2023-03-31T10:34:48;97127.34;;;12.05;94.74
73429;BME280;61643;49.564;17.412;2023-03-31T10:37:21;97112.28;;;12.04;95.56
73429;BME280;61643;49.564;17.412;2023-03-31T10:39:59;97111.47;;;12.03;94.57
73429;BME280;61643;49.564;17.412;2023-03-31T10:42:26;97107.69;;;12.04;94.93
73429;BME280;61643;49.564;17.412;2023-03-31T10:45:17;97106.38;;;12.02;94.76
73429;BME280;61643;49.564;17.412;2023-03-31T10:47:52;97114.59;;;11.92;94.21
73429;BME280;61643;49.564;17.412;2023-03-31T10:50:18;97113.38;;;11.84;94.50
73429;BME280;61643;49.564;17.412;2023-03-31T10:52:46;97108.63;;;11.76;95.00
73429;BME280;61643;49.564;17.412;2023-03-31T10:55:21;97102.94;;;11.77;95.76
73429;BME280;61643;49.564;17.412;2023-03-31T10:58:06;97105.88;;;11.81;95.38
73429;BME280;61643;49.564;17.412;2023-03-31T11:00:57;97098.00;;;11.84;95.67
73429;BME280;61643;49.564;17.412;2023-03-31T11:06:14;97087.00;;;12.00;96.01
73429;BME280;61643;49.564;17.412;2023-03-31T11:09:14;97078.53;;;12.06;94.74
73429;BME280;61643;49.564;17.412;2023-03-31T11:25:38;97041.59;;;12.20;94.98
73429;BME280;61643;49.564;17.412;2023-03-31T11:35:44;97049.38;;;12.41;92.94
73429;BME280;61643;49.564;17.412;2023-03-31T11:40:55;97044.44;;;12.29;91.63
73429;BME280;61643;49.564;17.412;2023-03-31T11:43:41;97035.72;;;12.18;93.06
73429;BME280;61643;49.564;17.412;2023-03-31T11:46:19;97044.66;;;12.00;93.47
73429;BME280;61643;49.564;17.412;2023-03-31T11:48:52;97031.25;;;11.95;94.81
73429;BME280;61643;49.564;17.412;2023-03-31T11:51:26;97037.28;;;11.87;94.93
73429;BME280;61643;49.564;17.412;2023-03-31T11:53:55;97036.66;;;11.76;95.42
73429;BME280;61643;49.564;17.412;2023-03-31T11:56:32;97030.00;;;11.69;97.58
73429;BME280;61643;49.564;17.412;2023-03-31T11:59:00;97024.75;;;11.59;99.49
73429;BME280;61643;49.564;17.412;2023-03-31T12:01:39;97015.38;;;11.56;99.37
73429;BME280;61643;49.564;17.412;2023-03-31T12:04:23;97013.84;;;11.50;100.00
73429;BME280;61643;49.564;17.412;2023-03-31T12:06:51;97020.59;;;11.48;100.00
73429;BME280;61643;49.564;17.412;2023-03-31T12:09:24;97015.13;;;11.34;100.00
73429;BME280;61643;49.564;17.412;2023-03-31T12:12:09;97006.84;;;11.30;100.00
73429;BME280;61643;49.564;17.412;2023-03-31T12:14:45;97011.50;;;11.25;100.00
73429;BME280;61643;49.564;17.412;2023-03-31T12:17:17;97002.25;;;11.12;100.00
73429;BME280;61643;49.564;17.412;2023-03-31T12:19:49;97002.72;;;11.14;100.00
73429;BME280;61643;49.564;17.412;2023-03-31T12:24:52;96980.97;;;11.11;100.00
73429;BME280;61643;49.564;17.412;2023-03-31T12:32:44;96968.97;;;11.03;100.00
73429;BME280;61643;49.564;17.412;2023-03-31T12:35:25;96953.91;;;11.02;100.00
73429;BME280;61643;49.564;17.412;2023-03-31T12:59:32;96921.66;;;10.97;100.00
73429;BME280;61643;49.564;17.412;2023-03-31T13:02:22;96904.47;;;10.93;100.00
73429;BME280;61643;49.564;17.412;2023-03-31T13:04:48;96906.47;;;10.88;100.00
73429;BME280;61643;49.564;17.412;2023-03-31T13:09:46;96896.06;;;10.81;100.00
73429;BME280;61643;49.564;17.412;2023-03-31T13:12:13;96900.34;;;10.82;100.00
73429;BME280;61643;49.564;17.412;2023-03-31T13:14:43;96904.13;;;10.81;100.00
73429;BME280;61643;49.564;17.412;2023-03-31T13:17:13;96893.91;;;10.78;100.00
73429;BME280;61643;49.564;17.412;2023-03-31T13:19:43;96885.06;;;10.77;100.00
73429;BME280;61643;49.564;17.412;2023-03-31T13:27:56;96877.56;;;10.74;100.00
73429;BME280;61643;49.564;17.412;2023-03-31T13:33:07;96853.06;;;10.76;100.00
73429;BME280;61643;49.564;17.412;2023-03-31T13:35:37;96847.63;;;10.81;100.00
73429;BME280;61643;49.564;17.412;2023-03-31T13:41:12;96833.25;;;11.04;100.00
73429;BME280;61643;49.564;17.412;2023-03-31T13:44:15;96817.03;;;11.09;100.00
73429;BME280;61643;49.564;17.412;2023-03-31T13:52:42;96778.38;;;11.32;100.00
73429;BME280;61643;49.564;17.412;2023-03-31T13:58:15;96775.22;;;11.58;100.00
73429;BME280;61643;49.564;17.412;2023-03-31T14:06:34;96776.88;;;11.72;100.00
73429;BME280;61643;49.564;17.412;2023-03-31T14:09:08;96778.78;;;11.72;100.00
73429;BME280;61643;49.564;17.412;2023-03-31T14:11:35;96792.59;;;11.65;100.00
73429;BME280;61643;49.564;17.412;2023-03-31T14:14:12;96775.75;;;11.60;99.99
73429;BME280;61643;49.564;17.412;2023-03-31T14:17:00;96777.81;;;11.49;99.80
73429;BME280;61643;49.564;17.412;2023-03-31T14:28:00;96765.50;;;11.29;100.00
73429;BME280;61643;49.564;17.412;2023-03-31T14:30:35;96759.09;;;11.25;100.00
73429;BME280;61643;49.564;17.412;2023-03-31T14:33:48;96759.72;;;11.22;100.00
73429;BME280;61643;49.564;17.412;2023-03-31T14:36:29;96760.03;;;11.21;100.00
73429;BME280;61643;49.564;17.412;2023-03-31T14:39:04;96750.34;;;11.20;100.00
73429;BME280;61643;49.564;17.412;2023-03-31T14:41:32;96737.66;;;11.20;100.00
73429;BME280;61643;49.564;17.412;2023-03-31T14:44:00;96719.31;;;11.22;100.00
73429;BME280;61643;49.564;17.412;2023-03-31T14:46:30;96729.19;;;11.27;100.00
73429;BME280;61643;49.564;17.412;2023-03-31T14:49:06;96713.84;;;11.27;100.00
73429;BME280;61643;49.564;17.412;2023-03-31T14:51:42;96708.88;;;11.34;100.00
73429;BME280;61643;49.564;17.412;2023-03-31T14:54:15;96701.19;;;11.42;100.00
73429;BME280;61643;49.564;17.412;2023-03-31T14:56:42;96693.59;;;11.44;100.00
73429;BME280;61643;49.564;17.412;2023-03-31T14:59:09;96693.78;;;11.47;100.00
73429;BME280;61643;49.564;17.412;2023-03-31T15:01:36;96688.91;;;11.49;100.00
73429;BME280;61643;49.564;17.412;2023-03-31T15:04:11;96689.81;;;11.58;100.00
73429;BME280;61643;49.564;17.412;2023-03-31T15:06:45;96687.00;;;11.63;100.00
73429;BME280;61643;49.564;17.412;2023-03-31T15:09:15;96689.41;;;11.65;100.00
73429;BME280;61643;49.564;17.412;2023-03-31T15:11:43;96678.94;;;11.63;100.00
73429;BME280;61643;49.564;17.412;2023-03-31T15:14:09;96681.31;;;11.65;100.00
73429;BME280;61643;49.564;17.412;2023-03-31T15:19:32;96680.63;;;11.73;99.70
73429;BME280;61643;49.564;17.412;2023-03-31T15:21:58;96652.19;;;11.67;99.85
73429;BME280;61643;49.564;17.412;2023-03-31T15:24:29;96637.59;;;11.68;99.31
73429;BME280;61643;49.564;17.412;2023-03-31T15:29:43;96647.06;;;11.65;99.04